sensor_id;sensor_type;location;lat;lon;timestamp;P1;durP1;ratioP1;P2;durP2;ratioP2
34673;SDS011;20879;55.668;37.858;2023-04-23T00:02:28;25.85;;;8.55;;
34673;SDS011;20879;55.668;37.858;2023-04-23T00:05:02;16.27;;;8.05;;
34673;SDS011;20879;55.668;37.858;2023-04-23T00:07:34;16.85;;;7.97;;
34673;SDS011;20879;55.668;37.858;2023-04-23T00:10:04;18.52;;;8.98;;
34673;SDS011;20879;55.668;37.858;2023-04-23T00:12:35;23.95;;;10.98;;
34673;SDS011;20879;55.668;37.858;2023-04-23T00:15:06;22.55;;;10.00;;
34673;SDS011;20879;55.668;37.858;2023-04-23T00:17:39;22.20;;;9.23;;
34673;SDS011;20879;55.668;37.858;2023-04-23T00:20:13;22.77;;;8.90;;
34673;SDS011;20879;55.668;37.858;2023-04-23T00:22:44;18.27;;;8.90;;
34673;SDS011;20879;55.668;37.858;2023-04-23T00:25:14;19.95;;;7.97;;
34673;SDS011;20879;55.668;37.858;2023-04-23T00:27:45;22.13;;;8.25;;
34673;SDS011;20879;55.668;37.858;2023-04-23T00:30:15;21.02;;;7.88;;
34673;SDS011;20879;55.668;37.858;2023-04-23T00:32:55;19.08;;;7.97;;
34673;SDS011;20879;55.668;37.858;2023-04-23T00:35:24;18.00;;;7.78;;
34673;SDS011;20879;55.668;37.858;2023-04-23T00:37:53;22.13;;;7.80;;
34673;SDS011;20879;55.668;37.858;2023-04-23T00:40:23;25.92;;;8.40;;
34673;SDS011;20879;55.668;37.858;2023-04-23T00:42:52;24.80;;;8.15;;
34673;SDS011;20879;55.668;37.858;2023-04-23T00:45:23;28.90;;;8.77;;
34673;SDS011;20879;55.668;37.858;2023-04-23T00:47:53;26.02;;;8.68;;
34673;SDS011;20879;55.668;37.858;2023-04-23T00:52:53;19.45;;;6.70;;
34673;SDS011;20879;55.668;37.858;2023-04-23T00:55:23;14.43;;;6.75;;
34673;SDS011;20879;55.668;37.858;2023-04-23T00:57:53;18.80;;;6.97;;
34673;SDS011;20879;55.668;37.858;2023-04-23T01:00:23;15.50;;;6.55;;
34673;SDS011;20879;55.668;37.858;2023-04-23T01:02:52;22.95;;;6.60;;
34673;SDS011;20879;55.668;37.858;2023-04-23T01:05:26;17.95;;;7.65;;
34673;SDS011;20879;55.668;37.858;2023-04-23T01:07:56;12.48;;;6.13;;
34673;SDS011;20879;55.668;37.858;2023-04-23T01:10:26;20.98;;;7.78;;
34673;SDS011;20879;55.668;37.858;2023-04-23T01:12:58;17.25;;;6.60;;
34673;SDS011;20879;55.668;37.858;2023-04-23T01:15:32;19.55;;;6.32;;
34673;SDS011;20879;55.668;37.858;2023-04-23T01:18:02;19.35;;;6.32;;
34673;SDS011;20879;55.668;37.858;2023-04-23T01:20:42;19.75;;;5.53;;
34673;SDS011;20879;55.668;37.858;2023-04-23T01:23:13;15.43;;;6.18;;
34673;SDS011;20879;55.668;37.858;2023-04-23T01:25:43;20.95;;;6.97;;
34673;SDS011;20879;55.668;37.858;2023-04-23T01:28:13;16.48;;;6.07;;
34673;SDS011;20879;55.668;37.858;2023-04-23T01:30:43;18.63;;;6.60;;
34673;SDS011;20879;55.668;37.858;2023-04-23T01:33:14;18.40;;;5.68;;
34673;SDS011;20879;55.668;37.858;2023-04-23T01:35:49;20.17;;;6.95;;
34673;SDS011;20879;55.668;37.858;2023-04-23T01:38:21;19.60;;;8.88;;
34673;SDS011;20879;55.668;37.858;2023-04-23T01:40:51;23.90;;;8.73;;
34673;SDS011;20879;55.668;37.858;2023-04-23T01:43:25;25.13;;;10.93;;
34673;SDS011;20879;55.668;37.858;2023-04-23T01:46:06;26.88;;;11.27;;
34673;SDS011;20879;55.668;37.858;2023-04-23T01:48:36;27.67;;;11.32;;
34673;SDS011;20879;55.668;37.858;2023-04-23T01:51:05;26.73;;;11.15;;
34673;SDS011;20879;55.668;37.858;2023-04-23T01:53:37;27.88;;;10.85;;
34673;SDS011;20879;55.668;37.858;2023-04-23T01:56:06;27.40;;;11.75;;
34673;SDS011;20879;55.668;37.858;2023-04-23T01:58:43;27.63;;;12.07;;
34673;SDS011;20879;55.668;37.858;2023-04-23T02:01:12;23.33;;;11.32;;
34673;SDS011;20879;55.668;37.858;2023-04-23T02:03:47;26.20;;;11.20;;
34673;SDS011;20879;55.668;37.858;2023-04-23T02:06:17;29.15;;;10.25;;
34673;SDS011;20879;55.668;37.858;2023-04-23T02:08:50;23.92;;;11.35;;
34673;SDS011;20879;55.668;37.858;2023-04-23T02:13:48;27.95;;;11.45;;
34673;SDS011;20879;55.668;37.858;2023-04-23T02:16:18;25.48;;;10.52;;
34673;SDS011;20879;55.668;37.858;2023-04-23T02:18:50;25.05;;;10.65;;
34673;SDS011;20879;55.668;37.858;2023-04-23T02:21:19;19.15;;;8.43;;
34673;SDS011;20879;55.668;37.858;2023-04-23T02:23:56;23.33;;;10.18;;
34673;SDS011;20879;55.668;37.858;2023-04-23T02:26:25;27.20;;;8.55;;
34673;SDS011;20879;55.668;37.858;2023-04-23T02:28:55;20.52;;;8.98;;
34673;SDS011;20879;55.668;37.858;2023-04-23T02:31:29;20.70;;;8.45;;
34673;SDS011;20879;55.668;37.858;2023-04-23T02:33:59;28.48;;;10.32;;
34673;SDS011;20879;55.668;37.858;2023-04-23T02:36:28;27.75;;;10.60;;
34673;SDS011;20879;55.668;37.858;2023-04-23T02:39:00;23.45;;;10.93;;
34673;SDS011;20879;55.668;37.858;2023-04-23T02:41:30;28.77;;;11.82;;
34673;SDS011;20879;55.668;37.858;2023-04-23T02:43:59;36.03;;;11.70;;
34673;SDS011;20879;55.668;37.858;2023-04-23T02:46:28;29.25;;;11.95;;
34673;SDS011;20879;55.668;37.858;2023-04-23T02:48:59;28.52;;;12.35;;
34673;SDS011;20879;55.668;37.858;2023-04-23T02:51:33;34.47;;;12.77;;
34673;SDS011;20879;55.668;37.858;2023-04-23T02:54:05;28.73;;;11.95;;
34673;SDS011;20879;55.668;37.858;2023-04-23T02:56:34;36.42;;;13.95;;
34673;SDS011;20879;55.668;37.858;2023-04-23T02:59:03;38.55;;;13.07;;
34673;SDS011;20879;55.668;37.858;2023-04-23T03:01:35;34.63;;;13.95;;
34673;SDS011;20879;55.668;37.858;2023-04-23T03:06:36;37.10;;;13.70;;
34673;SDS011;20879;55.668;37.858;2023-04-23T03:09:07;38.40;;;14.27;;
34673;SDS011;20879;55.668;37.858;2023-04-23T03:14:10;29.77;;;12.45;;
34673;SDS011;20879;55.668;37.858;2023-04-23T03:16:39;37.65;;;12.75;;
34673;SDS011;20879;55.668;37.858;2023-04-23T03:19:09;36.80;;;13.75;;
34673;SDS011;20879;55.668;37.858;2023-04-23T03:21:38;31.33;;;14.30;;
34673;SDS011;20879;55.668;37.858;2023-04-23T03:24:11;33.78;;;13.82;;
34673;SDS011;20879;55.668;37.858;2023-04-23T03:26:41;36.83;;;14.40;;
34673;SDS011;20879;55.668;37.858;2023-04-23T03:29:16;36.75;;;13.73;;
34673;SDS011;20879;55.668;37.858;2023-04-23T03:31:46;38.25;;;14.60;;
34673;SDS011;20879;55.668;37.858;2023-04-23T03:34:16;30.63;;;12.60;;
34673;SDS011;20879;55.668;37.858;2023-04-23T03:36:45;45.70;;;14.68;;
34673;SDS011;20879;55.668;37.858;2023-04-23T03:39:24;37.83;;;14.40;;
34673;SDS011;20879;55.668;37.858;2023-04-23T03:41:54;40.58;;;14.38;;
34673;SDS011;20879;55.668;37.858;2023-04-23T03:44:26;28.08;;;13.73;;
34673;SDS011;20879;55.668;37.858;2023-04-23T03:46:56;30.05;;;12.55;;
34673;SDS011;20879;55.668;37.858;2023-04-23T03:52:02;41.28;;;13.70;;
34673;SDS011;20879;55.668;37.858;2023-04-23T03:54:37;39.30;;;14.13;;
34673;SDS011;20879;55.668;37.858;2023-04-23T03:57:27;40.72;;;13.45;;
34673;SDS011;20879;55.668;37.858;2023-04-23T04:00:24;32.58;;;13.70;;
34673;SDS011;20879;55.668;37.858;2023-04-23T04:02:53;37.40;;;14.20;;
34673;SDS011;20879;55.668;37.858;2023-04-23T04:05:25;30.17;;;13.80;;
34673;SDS011;20879;55.668;37.858;2023-04-23T04:07:59;40.72;;;14.73;;
34673;SDS011;20879;55.668;37.858;2023-04-23T04:10:32;32.95;;;14.15;;
34673;SDS011;20879;55.668;37.858;2023-04-23T04:13:02;30.98;;;13.45;;
34673;SDS011;20879;55.668;37.858;2023-04-23T04:15:32;33.45;;;13.57;;
34673;SDS011;20879;55.668;37.858;2023-04-23T04:18:01;38.22;;;12.90;;
34673;SDS011;20879;55.668;37.858;2023-04-23T04:20:32;37.90;;;12.10;;
34673;SDS011;20879;55.668;37.858;2023-04-23T04:23:01;32.42;;;11.50;;
34673;SDS011;20879;55.668;37.858;2023-04-23T04:25:33;30.45;;;12.65;;
34673;SDS011;20879;55.668;37.858;2023-04-23T04:28:10;28.92;;;11.02;;
34673;SDS011;20879;55.668;37.858;2023-04-23T04:30:40;33.28;;;11.73;;
34673;SDS011;20879;55.668;37.858;2023-04-23T04:33:10;25.63;;;10.63;;
34673;SDS011;20879;55.668;37.858;2023-04-23T04:35:40;22.52;;;8.05;;
34673;SDS011;20879;55.668;37.858;2023-04-23T04:38:11;23.20;;;10.00;;
34673;SDS011;20879;55.668;37.858;2023-04-23T04:40:47;23.23;;;9.13;;
34673;SDS011;20879;55.668;37.858;2023-04-23T04:43:18;21.77;;;9.63;;
34673;SDS011;20879;55.668;37.858;2023-04-23T04:45:47;22.40;;;11.25;;
34673;SDS011;20879;55.668;37.858;2023-04-23T04:48:22;27.55;;;10.18;;
34673;SDS011;20879;55.668;37.858;2023-04-23T04:50:52;18.10;;;8.00;;
34673;SDS011;20879;55.668;37.858;2023-04-23T04:53:21;13.55;;;5.90;;
34673;SDS011;20879;55.668;37.858;2023-04-23T04:55:52;18.63;;;6.82;;
34673;SDS011;20879;55.668;37.858;2023-04-23T04:58:22;11.18;;;5.15;;
34673;SDS011;20879;55.668;37.858;2023-04-23T05:00:51;7.97;;;4.45;;
34673;SDS011;20879;55.668;37.858;2023-04-23T05:03:21;8.60;;;4.20;;
34673;SDS011;20879;55.668;37.858;2023-04-23T05:05:51;9.23;;;4.45;;
34673;SDS011;20879;55.668;37.858;2023-04-23T05:08:21;8.75;;;3.92;;
34673;SDS011;20879;55.668;37.858;2023-04-23T05:11:04;8.52;;;4.43;;
34673;SDS011;20879;55.668;37.858;2023-04-23T05:13:33;8.32;;;4.15;;
34673;SDS011;20879;55.668;37.858;2023-04-23T05:16:03;10.35;;;3.75;;
34673;SDS011;20879;55.668;37.858;2023-04-23T05:18:32;9.20;;;3.75;;
34673;SDS011;20879;55.668;37.858;2023-04-23T05:21:02;10.07;;;4.07;;
34673;SDS011;20879;55.668;37.858;2023-04-23T05:23:32;4.88;;;3.22;;
34673;SDS011;20879;55.668;37.858;2023-04-23T05:26:08;9.90;;;3.70;;
34673;SDS011;20879;55.668;37.858;2023-04-23T05:28:38;7.35;;;3.50;;
34673;SDS011;20879;55.668;37.858;2023-04-23T05:31:07;9.45;;;2.92;;
34673;SDS011;20879;55.668;37.858;2023-04-23T05:33:37;3.70;;;2.70;;
34673;SDS011;20879;55.668;37.858;2023-04-23T05:36:21;5.63;;;2.95;;
34673;SDS011;20879;55.668;37.858;2023-04-23T05:38:50;6.47;;;2.90;;
34673;SDS011;20879;55.668;37.858;2023-04-23T05:41:21;4.70;;;2.75;;
34673;SDS011;20879;55.668;37.858;2023-04-23T05:43:51;5.80;;;2.60;;
34673;SDS011;20879;55.668;37.858;2023-04-23T05:46:20;7.18;;;3.08;;
34673;SDS011;20879;55.668;37.858;2023-04-23T05:48:55;4.72;;;2.80;;
34673;SDS011;20879;55.668;37.858;2023-04-23T05:51:30;5.55;;;3.45;;
34673;SDS011;20879;55.668;37.858;2023-04-23T05:54:00;10.25;;;4.03;;
34673;SDS011;20879;55.668;37.858;2023-04-23T05:56:31;9.82;;;3.30;;
34673;SDS011;20879;55.668;37.858;2023-04-23T05:59:00;9.73;;;3.15;;
34673;SDS011;20879;55.668;37.858;2023-04-23T06:01:35;7.32;;;3.28;;
34673;SDS011;20879;55.668;37.858;2023-04-23T06:04:06;5.63;;;3.20;;
34673;SDS011;20879;55.668;37.858;2023-04-23T06:06:36;9.23;;;4.20;;
34673;SDS011;20879;55.668;37.858;2023-04-23T06:09:10;13.77;;;4.20;;
34673;SDS011;20879;55.668;37.858;2023-04-23T06:12:02;6.43;;;4.38;;
34673;SDS011;20879;55.668;37.858;2023-04-23T06:14:31;13.20;;;5.22;;
34673;SDS011;20879;55.668;37.858;2023-04-23T06:17:01;15.55;;;6.22;;
34673;SDS011;20879;55.668;37.858;2023-04-23T06:19:30;21.05;;;5.88;;
34673;SDS011;20879;55.668;37.858;2023-04-23T06:22:04;17.23;;;5.18;;
34673;SDS011;20879;55.668;37.858;2023-04-23T06:24:34;14.80;;;5.00;;
34673;SDS011;20879;55.668;37.858;2023-04-23T06:27:05;11.82;;;5.07;;
34673;SDS011;20879;55.668;37.858;2023-04-23T06:29:43;6.50;;;3.95;;
34673;SDS011;20879;55.668;37.858;2023-04-23T06:32:18;8.88;;;4.07;;
34673;SDS011;20879;55.668;37.858;2023-04-23T06:34:49;6.53;;;3.97;;
34673;SDS011;20879;55.668;37.858;2023-04-23T06:37:30;10.43;;;4.03;;
34673;SDS011;20879;55.668;37.858;2023-04-23T06:39:59;11.45;;;4.72;;
34673;SDS011;20879;55.668;37.858;2023-04-23T06:42:36;17.67;;;5.25;;
34673;SDS011;20879;55.668;37.858;2023-04-23T06:45:32;16.17;;;4.68;;
34673;SDS011;20879;55.668;37.858;2023-04-23T06:48:01;12.45;;;4.70;;
34673;SDS011;20879;55.668;37.858;2023-04-23T06:50:36;13.68;;;4.80;;
34673;SDS011;20879;55.668;37.858;2023-04-23T06:53:06;11.35;;;5.07;;
34673;SDS011;20879;55.668;37.858;2023-04-23T06:55:35;10.38;;;5.38;;
34673;SDS011;20879;55.668;37.858;2023-04-23T06:58:06;8.13;;;5.03;;
34673;SDS011;20879;55.668;37.858;2023-04-23T07:00:37;9.18;;;4.60;;
34673;SDS011;20879;55.668;37.858;2023-04-23T07:03:06;10.85;;;4.53;;
34673;SDS011;20879;55.668;37.858;2023-04-23T07:05:36;14.07;;;4.82;;
34673;SDS011;20879;55.668;37.858;2023-04-23T07:08:05;8.98;;;3.40;;
34673;SDS011;20879;55.668;37.858;2023-04-23T07:10:40;4.28;;;2.20;;
34673;SDS011;20879;55.668;37.858;2023-04-23T07:13:11;3.35;;;2.00;;
34673;SDS011;20879;55.668;37.858;2023-04-23T07:15:41;12.38;;;2.15;;
34673;SDS011;20879;55.668;37.858;2023-04-23T07:18:10;5.93;;;2.15;;
34673;SDS011;20879;55.668;37.858;2023-04-23T07:20:39;3.30;;;2.10;;
34673;SDS011;20879;55.668;37.858;2023-04-23T07:23:14;3.25;;;2.03;;
34673;SDS011;20879;55.668;37.858;2023-04-23T07:25:44;10.70;;;2.45;;
34673;SDS011;20879;55.668;37.858;2023-04-23T07:28:15;9.55;;;2.70;;
34673;SDS011;20879;55.668;37.858;2023-04-23T07:30:49;3.17;;;2.03;;
34673;SDS011;20879;55.668;37.858;2023-04-23T07:33:20;11.77;;;2.63;;
34673;SDS011;20879;55.668;37.858;2023-04-23T07:36:01;5.10;;;2.53;;
34673;SDS011;20879;55.668;37.858;2023-04-23T07:38:36;4.60;;;1.95;;
34673;SDS011;20879;55.668;37.858;2023-04-23T07:41:05;7.38;;;1.85;;
34673;SDS011;20879;55.668;37.858;2023-04-23T07:43:37;4.03;;;2.03;;
34673;SDS011;20879;55.668;37.858;2023-04-23T07:46:06;8.20;;;2.10;;
34673;SDS011;20879;55.668;37.858;2023-04-23T07:48:35;4.97;;;2.40;;
34673;SDS011;20879;55.668;37.858;2023-04-23T07:51:10;5.78;;;2.25;;
34673;SDS011;20879;55.668;37.858;2023-04-23T07:53:40;2.92;;;1.70;;
34673;SDS011;20879;55.668;37.858;2023-04-23T07:56:09;4.60;;;2.05;;
34673;SDS011;20879;55.668;37.858;2023-04-23T07:58:51;7.32;;;2.25;;
34673;SDS011;20879;55.668;37.858;2023-04-23T08:01:22;2.25;;;1.48;;
34673;SDS011;20879;55.668;37.858;2023-04-23T08:03:54;3.35;;;2.00;;
34673;SDS011;20879;55.668;37.858;2023-04-23T08:06:33;16.35;;;2.53;;
34673;SDS011;20879;55.668;37.858;2023-04-23T08:09:04;8.30;;;2.05;;
34673;SDS011;20879;55.668;37.858;2023-04-23T08:11:34;5.93;;;2.10;;
34673;SDS011;20879;55.668;37.858;2023-04-23T08:14:05;4.95;;;1.95;;
34673;SDS011;20879;55.668;37.858;2023-04-23T08:19:23;4.63;;;2.38;;
34673;SDS011;20879;55.668;37.858;2023-04-23T08:21:57;8.25;;;2.05;;
34673;SDS011;20879;55.668;37.858;2023-04-23T08:24:26;5.57;;;2.58;;
34673;SDS011;20879;55.668;37.858;2023-04-23T08:26:55;8.77;;;2.83;;
34673;SDS011;20879;55.668;37.858;2023-04-23T08:29:40;9.40;;;2.90;;
34673;SDS011;20879;55.668;37.858;2023-04-23T08:32:09;7.88;;;2.78;;
34673;SDS011;20879;55.668;37.858;2023-04-23T08:34:46;9.25;;;2.85;;
34673;SDS011;20879;55.668;37.858;2023-04-23T08:37:17;7.32;;;2.53;;
34673;SDS011;20879;55.668;37.858;2023-04-23T08:39:56;5.95;;;2.70;;
34673;SDS011;20879;55.668;37.858;2023-04-23T08:42:29;6.13;;;2.58;;
34673;SDS011;20879;55.668;37.858;2023-04-23T08:45:16;4.50;;;2.63;;
34673;SDS011;20879;55.668;37.858;2023-04-23T08:47:46;6.57;;;2.40;;
34673;SDS011;20879;55.668;37.858;2023-04-23T08:50:17;6.60;;;2.75;;
34673;SDS011;20879;55.668;37.858;2023-04-23T08:52:48;7.05;;;3.40;;
34673;SDS011;20879;55.668;37.858;2023-04-23T08:55:21;3.75;;;1.80;;
34673;SDS011;20879;55.668;37.858;2023-04-23T08:57:57;5.25;;;2.40;;
34673;SDS011;20879;55.668;37.858;2023-04-23T09:00:35;4.57;;;2.20;;
34673;SDS011;20879;55.668;37.858;2023-04-23T09:03:17;10.55;;;2.40;;
34673;SDS011;20879;55.668;37.858;2023-04-23T09:05:48;5.18;;;1.98;;
34673;SDS011;20879;55.668;37.858;2023-04-23T09:08:18;5.30;;;2.17;;
34673;SDS011;20879;55.668;37.858;2023-04-23T09:10:48;3.75;;;1.95;;
34673;SDS011;20879;55.668;37.858;2023-04-23T09:13:21;4.28;;;2.42;;
34673;SDS011;20879;55.668;37.858;2023-04-23T09:15:52;5.97;;;2.22;;
34673;SDS011;20879;55.668;37.858;2023-04-23T09:18:21;3.55;;;2.30;;
34673;SDS011;20879;55.668;37.858;2023-04-23T09:20:51;5.93;;;2.17;;
34673;SDS011;20879;55.668;37.858;2023-04-23T09:23:21;6.57;;;2.38;;
34673;SDS011;20879;55.668;37.858;2023-04-23T09:25:51;5.82;;;2.90;;
34673;SDS011;20879;55.668;37.858;2023-04-23T09:28:20;6.88;;;2.83;;
34673;SDS011;20879;55.668;37.858;2023-04-23T09:31:11;3.40;;;2.17;;
34673;SDS011;20879;55.668;37.858;2023-04-23T09:33:40;7.07;;;2.60;;
34673;SDS011;20879;55.668;37.858;2023-04-23T09:36:10;7.20;;;2.63;;
34673;SDS011;20879;55.668;37.858;2023-04-23T09:38:48;3.55;;;2.13;;
34673;SDS011;20879;55.668;37.858;2023-04-23T09:41:23;9.43;;;2.13;;
34673;SDS011;20879;55.668;37.858;2023-04-23T09:43:53;3.97;;;2.30;;
34673;SDS011;20879;55.668;37.858;2023-04-23T09:46:36;8.80;;;2.28;;
34673;SDS011;20879;55.668;37.858;2023-04-23T09:49:25;3.10;;;2.30;;
34673;SDS011;20879;55.668;37.858;2023-04-23T09:51:56;5.63;;;2.35;;
34673;SDS011;20879;55.668;37.858;2023-04-23T09:54:34;12.55;;;2.35;;
34673;SDS011;20879;55.668;37.858;2023-04-23T09:57:09;4.70;;;2.17;;
34673;SDS011;20879;55.668;37.858;2023-04-23T09:59:39;7.63;;;2.40;;
34673;SDS011;20879;55.668;37.858;2023-04-23T10:02:19;1.88;;;1.70;;
34673;SDS011;20879;55.668;37.858;2023-04-23T10:04:54;7.95;;;1.92;;
34673;SDS011;20879;55.668;37.858;2023-04-23T10:07:40;5.22;;;2.42;;
34673;SDS011;20879;55.668;37.858;2023-04-23T10:10:10;4.35;;;2.10;;
34673;SDS011;20879;55.668;37.858;2023-04-23T10:12:40;3.08;;;2.10;;
34673;SDS011;20879;55.668;37.858;2023-04-23T10:15:39;4.53;;;1.80;;
34673;SDS011;20879;55.668;37.858;2023-04-23T10:18:30;5.57;;;2.20;;
34673;SDS011;20879;55.668;37.858;2023-04-23T10:21:03;4.95;;;2.10;;
34673;SDS011;20879;55.668;37.858;2023-04-23T10:23:38;3.92;;;2.22;;
34673;SDS011;20879;55.668;37.858;2023-04-23T10:26:10;3.45;;;2.20;;
34673;SDS011;20879;55.668;37.858;2023-04-23T10:28:43;5.03;;;2.40;;
34673;SDS011;20879;55.668;37.858;2023-04-23T10:31:16;4.22;;;2.20;;
34673;SDS011;20879;55.668;37.858;2023-04-23T10:33:50;8.90;;;2.88;;
34673;SDS011;20879;55.668;37.858;2023-04-23T10:36:25;2.85;;;2.00;;
34673;SDS011;20879;55.668;37.858;2023-04-23T10:38:55;4.10;;;1.70;;
34673;SDS011;20879;55.668;37.858;2023-04-23T10:41:34;3.42;;;2.00;;
34673;SDS011;20879;55.668;37.858;2023-04-23T10:46:49;3.97;;;2.00;;
34673;SDS011;20879;55.668;37.858;2023-04-23T10:49:22;9.70;;;2.33;;
34673;SDS011;20879;55.668;37.858;2023-04-23T10:51:57;6.82;;;2.20;;
34673;SDS011;20879;55.668;37.858;2023-04-23T10:54:31;5.85;;;2.10;;
34673;SDS011;20879;55.668;37.858;2023-04-23T10:57:02;4.53;;;1.60;;
34673;SDS011;20879;55.668;37.858;2023-04-23T10:59:34;2.85;;;1.80;;
34673;SDS011;20879;55.668;37.858;2023-04-23T11:02:07;4.85;;;1.83;;
34673;SDS011;20879;55.668;37.858;2023-04-23T11:04:46;3.28;;;2.00;;
34673;SDS011;20879;55.668;37.858;2023-04-23T11:07:41;3.05;;;2.15;;
34673;SDS011;20879;55.668;37.858;2023-04-23T11:10:12;4.00;;;1.85;;
34673;SDS011;20879;55.668;37.858;2023-04-23T11:12:42;4.80;;;2.00;;
34673;SDS011;20879;55.668;37.858;2023-04-23T11:15:13;5.35;;;2.20;;
34673;SDS011;20879;55.668;37.858;2023-04-23T11:17:58;7.72;;;2.00;;
34673;SDS011;20879;55.668;37.858;2023-04-23T11:20:30;17.20;;;3.70;;
34673;SDS011;20879;55.668;37.858;2023-04-23T11:23:00;6.28;;;2.90;;
34673;SDS011;20879;55.668;37.858;2023-04-23T11:25:34;5.22;;;2.60;;
34673;SDS011;20879;55.668;37.858;2023-04-23T11:28:11;6.40;;;2.58;;
34673;SDS011;20879;55.668;37.858;2023-04-23T11:30:41;3.10;;;2.50;;
34673;SDS011;20879;55.668;37.858;2023-04-23T11:33:10;4.97;;;2.60;;
34673;SDS011;20879;55.668;37.858;2023-04-23T11:35:42;4.50;;;2.30;;
34673;SDS011;20879;55.668;37.858;2023-04-23T11:38:13;4.90;;;2.40;;
34673;SDS011;20879;55.668;37.858;2023-04-23T11:40:44;5.22;;;2.30;;
34673;SDS011;20879;55.668;37.858;2023-04-23T11:43:17;4.85;;;2.30;;
34673;SDS011;20879;55.668;37.858;2023-04-23T11:45:47;2.58;;;1.85;;
34673;SDS011;20879;55.668;37.858;2023-04-23T11:48:22;5.70;;;2.53;;
34673;SDS011;20879;55.668;37.858;2023-04-23T11:50:55;6.50;;;2.50;;
34673;SDS011;20879;55.668;37.858;2023-04-23T11:53:24;9.75;;;2.78;;
34673;SDS011;20879;55.668;37.858;2023-04-23T11:55:54;5.05;;;2.40;;
34673;SDS011;20879;55.668;37.858;2023-04-23T11:58:24;6.78;;;2.30;;
34673;SDS011;20879;55.668;37.858;2023-04-23T12:00:56;5.05;;;1.85;;
34673;SDS011;20879;55.668;37.858;2023-04-23T12:03:27;2.47;;;1.80;;
34673;SDS011;20879;55.668;37.858;2023-04-23T12:05:59;6.25;;;2.00;;
34673;SDS011;20879;55.668;37.858;2023-04-23T12:11:02;5.38;;;2.03;;
34673;SDS011;20879;55.668;37.858;2023-04-23T12:13:31;4.85;;;2.17;;
34673;SDS011;20879;55.668;37.858;2023-04-23T12:16:01;4.28;;;2.30;;
34673;SDS011;20879;55.668;37.858;2023-04-23T12:18:37;6.82;;;2.55;;
34673;SDS011;20879;55.668;37.858;2023-04-23T12:21:11;5.53;;;2.17;;
34673;SDS011;20879;55.668;37.858;2023-04-23T12:23:54;4.93;;;1.90;;
34673;SDS011;20879;55.668;37.858;2023-04-23T12:26:25;8.30;;;2.40;;
34673;SDS011;20879;55.668;37.858;2023-04-23T12:28:55;5.35;;;2.08;;
34673;SDS011;20879;55.668;37.858;2023-04-23T12:31:27;8.15;;;2.30;;
34673;SDS011;20879;55.668;37.858;2023-04-23T12:33:57;6.40;;;2.60;;
34673;SDS011;20879;55.668;37.858;2023-04-23T12:36:33;3.75;;;2.10;;
34673;SDS011;20879;55.668;37.858;2023-04-23T12:39:25;3.05;;;1.90;;
34673;SDS011;20879;55.668;37.858;2023-04-23T12:41:57;5.28;;;2.20;;
34673;SDS011;20879;55.668;37.858;2023-04-23T12:51:54;8.70;;;2.00;;
34673;SDS011;20879;55.668;37.858;2023-04-23T12:54:27;7.82;;;3.05;;
34673;SDS011;20879;55.668;37.858;2023-04-23T12:59:28;4.50;;;2.22;;
34673;SDS011;20879;55.668;37.858;2023-04-23T13:02:12;7.47;;;2.38;;
34673;SDS011;20879;55.668;37.858;2023-04-23T13:04:41;4.20;;;1.90;;
34673;SDS011;20879;55.668;37.858;2023-04-23T13:07:12;6.85;;;2.15;;
34673;SDS011;20879;55.668;37.858;2023-04-23T13:09:42;5.40;;;2.83;;
34673;SDS011;20879;55.668;37.858;2023-04-23T13:12:11;24.73;;;3.22;;
34673;SDS011;20879;55.668;37.858;2023-04-23T13:14:41;5.53;;;2.50;;
34673;SDS011;20879;55.668;37.858;2023-04-23T13:17:10;6.45;;;2.88;;
34673;SDS011;20879;55.668;37.858;2023-04-23T13:19:45;14.45;;;3.00;;
34673;SDS011;20879;55.668;37.858;2023-04-23T13:22:16;11.50;;;3.33;;
34673;SDS011;20879;55.668;37.858;2023-04-23T13:27:15;15.60;;;3.75;;
34673;SDS011;20879;55.668;37.858;2023-04-23T13:29:44;11.57;;;2.97;;
34673;SDS011;20879;55.668;37.858;2023-04-23T13:32:13;5.68;;;1.90;;
34673;SDS011;20879;55.668;37.858;2023-04-23T13:34:46;3.58;;;2.00;;
34673;SDS011;20879;55.668;37.858;2023-04-23T13:37:22;5.95;;;2.10;;
34673;SDS011;20879;55.668;37.858;2023-04-23T13:39:52;4.40;;;2.10;;
34673;SDS011;20879;55.668;37.858;2023-04-23T13:42:22;3.65;;;1.85;;
34673;SDS011;20879;55.668;37.858;2023-04-23T13:44:51;5.60;;;2.20;;
34673;SDS011;20879;55.668;37.858;2023-04-23T13:47:22;4.57;;;1.90;;
34673;SDS011;20879;55.668;37.858;2023-04-23T13:49:52;3.67;;;1.98;;
34673;SDS011;20879;55.668;37.858;2023-04-23T13:52:29;9.77;;;1.73;;
34673;SDS011;20879;55.668;37.858;2023-04-23T13:57:30;3.33;;;1.73;;
34673;SDS011;20879;55.668;37.858;2023-04-23T13:59:59;7.05;;;2.58;;
34673;SDS011;20879;55.668;37.858;2023-04-23T14:02:31;4.82;;;2.17;;
34673;SDS011;20879;55.668;37.858;2023-04-23T14:05:01;4.32;;;2.10;;
34673;SDS011;20879;55.668;37.858;2023-04-23T14:07:34;7.10;;;2.37;;
34673;SDS011;20879;55.668;37.858;2023-04-23T14:10:03;5.38;;;2.20;;
34673;SDS011;20879;55.668;37.858;2023-04-23T14:12:39;4.03;;;2.65;;
34673;SDS011;20879;55.668;37.858;2023-04-23T14:15:08;6.90;;;2.90;;
34673;SDS011;20879;55.668;37.858;2023-04-23T14:17:43;8.02;;;2.97;;
34673;SDS011;20879;55.668;37.858;2023-04-23T14:20:13;6.70;;;2.10;;
34673;SDS011;20879;55.668;37.858;2023-04-23T14:22:49;7.15;;;2.40;;
34673;SDS011;20879;55.668;37.858;2023-04-23T14:25:24;3.85;;;2.47;;
34673;SDS011;20879;55.668;37.858;2023-04-23T14:28:00;4.70;;;2.47;;
34673;SDS011;20879;55.668;37.858;2023-04-23T14:30:37;4.63;;;3.08;;
34673;SDS011;20879;55.668;37.858;2023-04-23T14:33:14;8.65;;;4.10;;
34673;SDS011;20879;55.668;37.858;2023-04-23T14:35:43;8.95;;;3.78;;
34673;SDS011;20879;55.668;37.858;2023-04-23T14:38:14;6.07;;;3.05;;
34673;SDS011;20879;55.668;37.858;2023-04-23T14:40:44;5.60;;;2.50;;
34673;SDS011;20879;55.668;37.858;2023-04-23T14:43:15;9.05;;;2.38;;
34673;SDS011;20879;55.668;37.858;2023-04-23T14:45:44;6.15;;;2.20;;
34673;SDS011;20879;55.668;37.858;2023-04-23T14:48:13;3.08;;;1.90;;
34673;SDS011;20879;55.668;37.858;2023-04-23T14:50:43;2.72;;;2.20;;
34673;SDS011;20879;55.668;37.858;2023-04-23T14:53:14;7.82;;;2.30;;
34673;SDS011;20879;55.668;37.858;2023-04-23T14:58:26;6.90;;;2.70;;
34673;SDS011;20879;55.668;37.858;2023-04-23T15:00:56;6.53;;;2.20;;
34673;SDS011;20879;55.668;37.858;2023-04-23T15:03:25;7.10;;;2.70;;
34673;SDS011;20879;55.668;37.858;2023-04-23T15:05:54;4.30;;;2.75;;
34673;SDS011;20879;55.668;37.858;2023-04-23T15:08:31;6.60;;;2.65;;
34673;SDS011;20879;55.668;37.858;2023-04-23T15:11:13;6.10;;;2.90;;
34673;SDS011;20879;55.668;37.858;2023-04-23T15:13:43;9.07;;;3.72;;
34673;SDS011;20879;55.668;37.858;2023-04-23T15:16:18;6.55;;;3.08;;
34673;SDS011;20879;55.668;37.858;2023-04-23T15:19:13;3.85;;;2.55;;
34673;SDS011;20879;55.668;37.858;2023-04-23T15:21:44;13.18;;;3.92;;
34673;SDS011;20879;55.668;37.858;2023-04-23T15:24:16;8.10;;;3.08;;
34673;SDS011;20879;55.668;37.858;2023-04-23T15:26:45;8.40;;;3.17;;
34673;SDS011;20879;55.668;37.858;2023-04-23T15:29:20;6.95;;;3.13;;
34673;SDS011;20879;55.668;37.858;2023-04-23T15:31:55;5.65;;;2.90;;
34673;SDS011;20879;55.668;37.858;2023-04-23T15:34:25;3.97;;;2.15;;
34673;SDS011;20879;55.668;37.858;2023-04-23T15:36:56;9.45;;;3.22;;